Varnadiep — PBIB — position and weather

sailwx.info

Track history (hours):
 
Tides and Currents Weather Stations Pressure Air Temp Water Temp Dewpoint Dewpoint Depression Visibility Wind Speed Wind Dir Waves Ship Positions

Varnadiep

Last reported at 2015-Apr-25 23:11 UTC. Time now 2015-Apr-28 15:59 UTC.
Position N 43°46' W 006°29'.

Length 118 m; draft 6.5 m.

Type: Cargo ship. MMSI: 244729000.

Date/timePositionNaut miles runAvg speedWind from/ knotsBaromVisibWave heightAir tempDewpointWater temp
2015-Apr-25 23:11N 43°46' W 006°29'812.8
2015-Apr-25 22:33N 43°45' W 006°18'1312.7
2015-Apr-25 21:33N 43°44' W 006°00'1312.9
2015-Apr-25 20:31N 43°43' W 005°42'1312.5
2015-Apr-25 19:30N 43°42' W 005°24'1212.3
2015-Apr-25 18:30N 43°41' W 005°07'  
2015-Apr-22 18:33N 43°38' W 005°03'0 0.4
2015-Apr-22 17:34N 43°38' W 005°04'1 0.5
2015-Apr-22 16:34N 43°38' W 005°04'2 0.7
2015-Apr-22 14:04N 43°40' W 005°03'0 0.7
2015-Apr-22 13:30N 43°40' W 005°03'1 0.8
2015-Apr-22 12:34N 43°41' W 005°03'12 4.1
2015-Apr-22 09:33N 43°43' W 005°20'1111.0
2015-Apr-22 08:33N 43°42' W 005°36'1111.4
2015-Apr-22 07:33N 43°43' W 005°51'1211.8
2015-Apr-22 06:33N 43°44' W 006°08'9 9.3
2015-Apr-22 05:33N 43°45' W 006°21'  
2015-Apr-19 23:32N 39°20' W 009°51'1111.3
2015-Apr-19 22:32N 39°09' W 009°51'1111.2
2015-Apr-19 21:33N 38°58' W 009°51'1111.3
2015-Apr-19 20:33N 38°47' W 009°52'1110.9
2015-Apr-19 19:33N 38°36' W 009°49'1111.0
2015-Apr-19 18:33N 38°25' W 009°46'1111.0
2015-Apr-19 17:33N 38°15' W 009°43'1111.2
2015-Apr-19 16:33N 38°04' W 009°39'1111.0
2015-Apr-19 15:33N 37°53' W 009°37'1110.7
2015-Apr-19 14:33N 37°43' W 009°33'1111.0
2015-Apr-19 13:33N 37°32' W 009°29'  
Track history (hours):
 
Tides and Currents Weather Stations Pressure Air Temp Water Temp Dewpoint Dewpoint Depression Visibility Wind Speed Wind Dir Waves Ship Positions

Varnadiep

Last reported at 2015-Apr-25 23:11 UTC. Time now 2015-Apr-28 15:59 UTC.
Position N 43°46' W 006°29'.

Length 118 m; draft 6.5 m.

Type: Cargo ship. MMSI: 244729000.

Date/timePositionNaut miles runAvg speedWind from/ knotsBaromVisibWave heightAir tempDewpointWater temp
2015-Apr-25 23:11N 43°46' W 006°29'812.8
2015-Apr-25 22:33N 43°45' W 006°18'1312.7
2015-Apr-25 21:33N 43°44' W 006°00'1312.9
2015-Apr-25 20:31N 43°43' W 005°42'1312.5
2015-Apr-25 19:30N 43°42' W 005°24'1212.3
2015-Apr-25 18:30N 43°41' W 005°07'  
2015-Apr-22 18:33N 43°38' W 005°03'0 0.4
2015-Apr-22 17:34N 43°38' W 005°04'1 0.5
2015-Apr-22 16:34N 43°38' W 005°04'2 0.7
2015-Apr-22 14:04N 43°40' W 005°03'0 0.7
2015-Apr-22 13:30N 43°40' W 005°03'1 0.8
2015-Apr-22 12:34N 43°41' W 005°03'12 4.1
2015-Apr-22 09:33N 43°43' W 005°20'1111.0
2015-Apr-22 08:33N 43°42' W 005°36'1111.4
2015-Apr-22 07:33N 43°43' W 005°51'1211.8
2015-Apr-22 06:33N 43°44' W 006°08'9 9.3
2015-Apr-22 05:33N 43°45' W 006°21'  
2015-Apr-19 23:32N 39°20' W 009°51'1111.3
2015-Apr-19 22:32N 39°09' W 009°51'1111.2
2015-Apr-19 21:33N 38°58' W 009°51'1111.3
2015-Apr-19 20:33N 38°47' W 009°52'1110.9
2015-Apr-19 19:33N 38°36' W 009°49'1111.0
2015-Apr-19 18:33N 38°25' W 009°46'1111.0
2015-Apr-19 17:33N 38°15' W 009°43'1111.2
2015-Apr-19 16:33N 38°04' W 009°39'1111.0
2015-Apr-19 15:33N 37°53' W 009°37'1110.7
2015-Apr-19 14:33N 37°43' W 009°33'1111.0
2015-Apr-19 13:33N 37°32' W 009°29'  

Dump ship's entire track history